createdAt,value
2022-12-17T00:02:27.487Z,100.00
2022-12-17T00:05:13.152Z,100.00
2022-12-17T00:07:58.679Z,100.00
2022-12-17T00:10:44.014Z,100.00
2022-12-17T00:13:40.700Z,100.00
2022-12-17T00:16:26.278Z,100.00
2022-12-17T00:19:11.815Z,100.00
2022-12-17T00:21:57.158Z,100.00
2022-12-17T00:24:42.701Z,100.00
2022-12-17T00:27:28.170Z,100.00
2022-12-17T00:30:13.691Z,100.00
2022-12-17T00:32:59.365Z,100.00
2022-12-17T00:35:44.730Z,100.00
2022-12-17T00:38:34.721Z,100.00
2022-12-17T00:41:20.270Z,100.00
2022-12-17T00:44:05.749Z,100.00
2022-12-17T00:46:51.108Z,100.00
2022-12-17T00:49:37.532Z,100.00
2022-12-17T00:52:23.046Z,100.00
2022-12-17T00:55:08.459Z,100.00
2022-12-17T00:57:53.927Z,100.00
2022-12-17T01:00:41.880Z,100.00
2022-12-17T01:03:30.526Z,100.00
2022-12-17T01:06:20.687Z,100.00
2022-12-17T01:09:06.088Z,100.00
2022-12-17T01:11:51.558Z,100.00
2022-12-17T01:14:37.409Z,100.00
2022-12-17T01:17:42.673Z,100.00
2022-12-17T01:20:28.448Z,100.00
2022-12-17T01:23:14.109Z,100.00
2022-12-17T01:25:59.413Z,100.00
2022-12-17T01:28:45.407Z,100.00
2022-12-17T01:31:34.993Z,100.00
2022-12-17T01:34:20.740Z,100.00
2022-12-17T01:37:06.155Z,99.84
2022-12-17T01:39:51.537Z,100.00
2022-12-17T01:42:36.975Z,99.73
2022-12-17T01:45:23.022Z,98.62
2022-12-17T01:48:14.724Z,98.66
2022-12-17T01:51:04.682Z,98.24
2022-12-17T01:53:54.493Z,97.81
2022-12-17T01:56:42.486Z,97.84
2022-12-17T01:59:29.016Z,98.20
2022-12-17T02:02:14.635Z,97.79
2022-12-17T02:05:00.353Z,97.45
2022-12-17T02:08:15.361Z,98.42
2022-12-17T02:11:16.372Z,97.76
2022-12-17T02:14:10.780Z,98.04
2022-12-17T02:17:09.317Z,97.47
2022-12-17T02:20:13.497Z,97.65
2022-12-17T02:23:18.131Z,97.66
2022-12-17T02:26:52.299Z,97.37
2022-12-17T02:30:00.221Z,97.31
2022-12-17T02:32:46.190Z,97.67
2022-12-17T02:35:41.366Z,97.04
2022-12-17T02:38:37.091Z,96.90
2022-12-17T02:41:24.586Z,95.95
2022-12-17T02:44:11.552Z,95.69
2022-12-17T02:47:00.380Z,95.52
2022-12-17T02:49:45.866Z,95.88
2022-12-17T02:52:34.840Z,95.59
2022-12-17T02:55:20.631Z,95.96
2022-12-17T02:58:06.087Z,95.53
2022-12-17T03:00:51.617Z,95.23
2022-12-17T03:03:37.421Z,95.16
2022-12-17T03:06:23.774Z,95.51
2022-12-17T03:09:09.028Z,95.49
2022-12-17T03:11:54.684Z,96.01
2022-12-17T03:14:40.116Z,94.73
2022-12-17T03:17:25.437Z,94.52
2022-12-17T03:20:10.791Z,94.66
2022-12-17T03:22:56.067Z,94.47
2022-12-17T03:25:41.536Z,95.70
2022-12-17T03:28:29.659Z,95.21
2022-12-17T03:31:18.652Z,94.78
2022-12-17T03:34:04.576Z,94.46
2022-12-17T03:36:50.609Z,94.36
2022-12-17T03:39:36.205Z,93.57
2022-12-17T03:42:21.595Z,93.05
2022-12-17T03:45:07.120Z,93.26
2022-12-17T03:47:52.540Z,93.08
2022-12-17T03:50:37.978Z,93.13
2022-12-17T03:53:23.698Z,93.10
2022-12-17T03:56:09.249Z,92.80
2022-12-17T03:58:54.728Z,92.95
2022-12-17T04:01:40.310Z,92.55
2022-12-17T04:04:25.808Z,92.46
2022-12-17T04:07:11.280Z,92.07
2022-12-17T04:09:56.789Z,92.19
2022-12-17T04:12:45.264Z,92.50
2022-12-17T04:15:30.767Z,91.90
2022-12-17T04:18:16.251Z,91.92
2022-12-17T04:21:01.770Z,92.34
2022-12-17T04:23:47.225Z,92.02
2022-12-17T04:26:32.782Z,91.68
2022-12-17T04:29:18.284Z,91.04
2022-12-17T04:32:03.751Z,90.46
2022-12-17T04:34:49.074Z,91.43
2022-12-17T04:37:34.489Z,90.88
2022-12-17T04:40:20.060Z,91.58
2022-12-17T04:43:05.567Z,91.21
2022-12-17T04:45:51.211Z,91.94
2022-12-17T04:48:36.685Z,92.25
2022-12-17T04:51:22.020Z,91.71
2022-12-17T04:54:07.373Z,91.64
2022-12-17T04:56:52.857Z,90.79
2022-12-17T04:59:38.377Z,91.21
2022-12-17T05:02:23.797Z,90.43
2022-12-17T05:05:09.394Z,90.44
2022-12-17T05:07:54.793Z,90.09
2022-12-17T05:10:40.153Z,90.34
2022-12-17T05:13:25.620Z,90.79
2022-12-17T05:16:15.102Z,90.98
2022-12-17T05:19:01.194Z,91.42
2022-12-17T05:21:46.708Z,90.91
2022-12-17T05:24:32.174Z,90.23
2022-12-17T05:27:17.607Z,90.00
2022-12-17T05:30:02.934Z,89.80
2022-12-17T05:32:48.185Z,90.00
2022-12-17T05:35:33.733Z,89.95
2022-12-17T05:38:27.347Z,89.59
2022-12-17T05:41:17.218Z,89.07
2022-12-17T05:44:02.459Z,88.66
2022-12-17T05:46:48.689Z,89.02
2022-12-17T05:49:34.210Z,88.44
2022-12-17T05:52:19.645Z,88.70
2022-12-17T05:55:05.036Z,89.21
2022-12-17T05:57:56.022Z,88.15
2022-12-17T06:00:46.297Z,88.50
2022-12-17T06:03:31.913Z,87.29
2022-12-17T06:06:17.477Z,87.95
2022-12-17T06:09:02.797Z,88.51
2022-12-17T06:11:48.235Z,88.02
2022-12-17T06:14:33.693Z,88.21
2022-12-17T06:17:19.311Z,88.38
2022-12-17T06:20:05.237Z,86.76
2022-12-17T06:22:50.533Z,86.71
2022-12-17T06:25:36.657Z,87.24
2022-12-17T06:28:22.470Z,88.13
2022-12-17T06:31:12.060Z,87.47
2022-12-17T06:33:58.589Z,87.39
2022-12-17T06:36:44.605Z,87.44
2022-12-17T06:39:29.932Z,88.21
2022-12-17T06:42:15.295Z,88.16
2022-12-17T06:45:00.645Z,87.98
2022-12-17T06:47:46.090Z,87.10
2022-12-17T06:50:31.491Z,86.21
2022-12-17T06:53:22.119Z,86.34
2022-12-17T06:56:07.601Z,86.38
2022-12-17T06:58:53.135Z,86.36
2022-12-17T07:01:52.339Z,86.91
2022-12-17T07:04:37.891Z,86.03
2022-12-17T07:07:23.409Z,86.61
2022-12-17T07:10:13.837Z,86.93
2022-12-17T07:12:59.726Z,86.39
2022-12-17T07:15:45.123Z,86.53
2022-12-17T07:18:30.624Z,86.80
2022-12-17T07:21:16.120Z,87.14
2022-12-17T07:24:01.511Z,87.25
2022-12-17T07:26:46.898Z,86.81
2022-12-17T07:29:32.313Z,86.15
2022-12-17T07:32:17.750Z,87.07
2022-12-17T07:35:03.129Z,86.57
2022-12-17T07:37:48.500Z,86.92
2022-12-17T07:40:33.917Z,87.26
2022-12-17T07:43:20.898Z,87.58
2022-12-17T07:46:06.495Z,89.96
2022-12-17T07:48:52.110Z,91.88
2022-12-17T07:51:37.461Z,89.46
2022-12-17T07:54:36.808Z,90.85
2022-12-17T07:57:22.096Z,91.33
2022-12-17T08:00:07.462Z,87.63
2022-12-17T08:02:52.860Z,87.82
2022-12-17T08:05:38.302Z,88.20
2022-12-17T08:08:29.106Z,86.21
2022-12-17T08:11:14.554Z,85.33
2022-12-17T08:13:59.918Z,85.16
2022-12-17T08:16:45.575Z,85.93
2022-12-17T08:19:31.325Z,86.89
2022-12-17T08:22:16.751Z,86.63
2022-12-17T08:25:02.151Z,85.48
2022-12-17T08:27:47.521Z,85.40
2022-12-17T08:30:33.244Z,86.15
2022-12-17T08:33:23.810Z,85.75
2022-12-17T08:36:24.899Z,86.14
2022-12-17T08:39:10.284Z,87.80
2022-12-17T08:41:58.426Z,90.41
2022-12-17T08:44:47.908Z,92.61
2022-12-17T08:47:33.555Z,93.97
2022-12-17T08:50:19.193Z,94.31
2022-12-17T08:53:04.502Z,94.30
2022-12-17T08:55:50.161Z,94.08
2022-12-17T08:58:35.483Z,93.93
2022-12-17T09:01:21.096Z,92.58
2022-12-17T09:04:06.559Z,91.06
2022-12-17T09:06:52.111Z,91.57
2022-12-17T09:09:37.559Z,92.13
2022-12-17T09:12:23.056Z,91.45
2022-12-17T09:15:08.384Z,91.17
2022-12-17T09:17:53.719Z,91.04
2022-12-17T09:20:39.329Z,91.06
2022-12-17T09:23:24.774Z,89.46
2022-12-17T09:26:16.901Z,90.08
2022-12-17T09:29:02.280Z,88.89
2022-12-17T09:31:51.750Z,87.31
2022-12-17T09:34:37.801Z,86.07
2022-12-17T09:37:23.343Z,87.59
2022-12-17T09:40:09.040Z,87.34
2022-12-17T09:43:11.864Z,87.70
2022-12-17T09:46:21.732Z,87.25
2022-12-17T09:49:20.366Z,87.34
2022-12-17T09:52:06.052Z,87.86
2022-12-17T09:55:08.735Z,87.22
2022-12-17T09:57:55.647Z,87.43
2022-12-17T10:00:44.251Z,86.56
2022-12-17T10:03:34.389Z,86.56
2022-12-17T10:06:42.661Z,86.40
2022-12-17T10:09:37.449Z,86.84
2022-12-17T10:12:35.669Z,87.29
2022-12-17T10:15:22.314Z,88.21
2022-12-17T10:18:07.863Z,87.85
2022-12-17T10:21:00.512Z,88.65
2022-12-17T10:23:50.086Z,89.12
2022-12-17T10:26:45.751Z,89.30
2022-12-17T10:29:48.173Z,88.93
2022-12-17T10:32:33.966Z,89.18
2022-12-17T10:35:39.546Z,89.56
2022-12-17T10:38:49.190Z,90.11
2022-12-17T10:41:48.113Z,89.75
2022-12-17T10:44:42.843Z,89.19
2022-12-17T10:47:52.755Z,89.30
2022-12-17T10:50:41.462Z,88.82
2022-12-17T10:53:42.912Z,89.04
2022-12-17T10:56:44.059Z,89.53
2022-12-17T10:59:52.168Z,88.78
2022-12-17T11:02:47.499Z,89.11
2022-12-17T11:05:59.988Z,88.63
2022-12-17T11:08:45.942Z,89.27
2022-12-17T11:11:33.418Z,88.67
2022-12-17T11:14:21.448Z,88.58
2022-12-17T11:17:11.953Z,88.27
2022-12-17T11:20:07.914Z,88.33
2022-12-17T11:23:00.992Z,88.65
2022-12-17T11:26:05.592Z,87.67
2022-12-17T11:28:53.668Z,87.93
2022-12-17T11:32:04.252Z,87.36
2022-12-17T11:35:44.109Z,87.14
2022-12-17T11:38:59.998Z,87.30
2022-12-17T11:42:12.694Z,87.71
2022-12-17T11:45:13.574Z,87.58
2022-12-17T11:48:10.180Z,86.81
2022-12-17T11:51:13.175Z,86.96
2022-12-17T11:54:13.962Z,86.80
2022-12-17T11:57:45.096Z,87.49
2022-12-17T12:00:42.378Z,87.75
2022-12-17T12:03:36.440Z,87.74
2022-12-17T12:06:33.111Z,87.66
2022-12-17T12:09:39.485Z,87.30
2022-12-17T12:12:43.988Z,87.10
2022-12-17T12:16:01.372Z,86.21
2022-12-17T12:19:02.314Z,86.39
2022-12-17T12:22:30.473Z,85.68
2022-12-17T12:25:47.743Z,85.65
2022-12-17T12:28:48.304Z,85.46
2022-12-17T12:31:56.712Z,85.06
2022-12-17T12:34:48.869Z,84.26
2022-12-17T12:37:37.172Z,84.42
2022-12-17T12:40:38.129Z,84.66
2022-12-17T12:43:29.756Z,84.62
2022-12-17T12:46:25.082Z,84.20
2022-12-17T12:49:15.976Z,84.89
2022-12-17T12:52:01.939Z,85.12
2022-12-17T12:55:09.775Z,85.96
2022-12-17T12:58:03.025Z,85.64
2022-12-17T13:01:09.435Z,86.13
2022-12-17T13:04:07.517Z,86.19
2022-12-17T13:06:43.349Z,86.48
2022-12-17T13:09:20.759Z,86.92
2022-12-17T13:12:04.213Z,86.21
2022-12-17T13:15:08.706Z,86.96
2022-12-17T13:17:39.627Z,86.70
2022-12-17T13:20:24.884Z,86.81
2022-12-17T13:23:11.831Z,86.72
2022-12-17T13:25:38.704Z,86.59
2022-12-17T13:28:05.544Z,86.69
2022-12-17T13:30:38.854Z,86.72
2022-12-17T13:33:29.536Z,87.50
2022-12-17T13:36:21.453Z,87.73
2022-12-17T13:39:15.119Z,87.58
2022-12-17T13:41:42.007Z,87.54
2022-12-17T13:44:21.465Z,88.43
2022-12-17T13:46:50.020Z,88.78
2022-12-17T13:49:25.294Z,88.85
2022-12-17T13:52:17.455Z,89.15
2022-12-17T13:54:44.848Z,89.31
2022-12-17T13:57:23.431Z,89.24
2022-12-17T13:59:52.438Z,89.25
2022-12-17T14:02:31.462Z,90.15
2022-12-17T14:05:07.893Z,90.22
2022-12-17T14:07:38.973Z,90.29
2022-12-17T14:10:14.694Z,91.66
2022-12-17T14:12:41.697Z,91.16
2022-12-17T14:15:25.155Z,91.69
2022-12-17T14:17:53.894Z,92.20
2022-12-17T14:20:23.967Z,92.56
2022-12-17T14:22:54.103Z,92.36
2022-12-17T14:25:24.560Z,92.73
2022-12-17T14:28:02.214Z,92.75
2022-12-17T14:31:17.162Z,92.91
2022-12-17T14:33:31.837Z,93.35
2022-12-17T14:36:02.033Z,93.52
2022-12-17T14:38:48.439Z,94.76
2022-12-17T14:41:35.675Z,94.99
2022-12-17T14:44:03.937Z,95.14
2022-12-17T14:46:32.725Z,95.70
2022-12-17T14:49:02.023Z,95.54
2022-12-17T14:51:35.497Z,96.04
2022-12-17T14:54:21.992Z,96.82
2022-12-17T14:56:50.239Z,96.90
2022-12-17T14:59:36.343Z,96.86
2022-12-17T15:02:28.639Z,96.68
2022-12-17T15:05:01.769Z,97.08
2022-12-17T15:07:31.204Z,97.27
2022-12-17T15:10:08.696Z,97.23
2022-12-17T15:12:35.433Z,97.41
2022-12-17T15:15:02.223Z,97.82
2022-12-17T15:17:29.018Z,98.13
2022-12-17T15:19:56.337Z,98.19
2022-12-17T15:22:23.981Z,98.25
2022-12-17T15:24:50.675Z,98.26
2022-12-17T15:27:17.585Z,98.25
2022-12-17T15:29:44.538Z,98.12
2022-12-17T15:32:23.685Z,98.42
2022-12-17T15:34:50.543Z,98.20
2022-12-17T15:37:21.128Z,97.87
2022-12-17T15:39:51.263Z,98.91
2022-12-17T15:42:36.758Z,98.08
2022-12-17T15:45:03.733Z,98.00
2022-12-17T15:47:30.421Z,98.11
2022-12-17T15:49:57.112Z,98.09
2022-12-17T15:52:24.498Z,98.51
2022-12-17T15:54:51.267Z,98.97
2022-12-17T15:57:18.869Z,98.48
2022-12-17T15:59:46.045Z,98.82
2022-12-17T16:02:12.913Z,98.35
2022-12-17T16:04:43.177Z,98.23
2022-12-17T16:07:09.853Z,99.18
2022-12-17T16:09:36.582Z,99.35
2022-12-17T16:12:03.444Z,98.17
2022-12-17T16:14:30.096Z,97.71
2022-12-17T16:16:56.860Z,98.16
2022-12-17T16:19:23.756Z,98.79
2022-12-17T16:21:50.673Z,98.84
2022-12-17T16:24:17.889Z,98.72
2022-12-17T16:26:44.665Z,98.79
2022-12-17T16:29:11.443Z,98.64
2022-12-17T16:31:38.190Z,98.99
2022-12-17T16:34:12.902Z,98.81
2022-12-17T16:36:39.792Z,99.81
2022-12-17T16:39:06.788Z,99.99
2022-12-17T16:41:34.294Z,99.62
2022-12-17T16:44:01.170Z,100.00
2022-12-17T16:46:33.285Z,99.67
2022-12-17T16:49:05.523Z,99.78
2022-12-17T16:51:32.311Z,100.00
2022-12-17T16:53:59.494Z,99.59
2022-12-17T16:56:28.274Z,99.40
2022-12-17T16:58:55.875Z,99.61
2022-12-17T17:01:25.864Z,99.93
2022-12-17T17:03:52.846Z,99.73
2022-12-17T17:06:20.767Z,99.56
2022-12-17T17:08:47.571Z,99.80
2022-12-17T17:11:15.826Z,99.97
2022-12-17T17:13:42.818Z,100.00
2022-12-17T17:16:11.199Z,100.00
2022-12-17T17:18:39.049Z,100.00
2022-12-17T17:21:19.274Z,100.00
2022-12-17T17:23:51.829Z,100.00
2022-12-17T17:26:18.670Z,100.00
2022-12-17T17:28:46.115Z,100.00
2022-12-17T17:31:14.018Z,100.00
2022-12-17T17:33:48.828Z,100.00
2022-12-17T17:36:17.961Z,100.00
2022-12-17T17:38:46.136Z,100.00
2022-12-17T17:41:15.690Z,99.97
2022-12-17T17:43:42.982Z,99.86
2022-12-17T17:46:13.452Z,99.69
2022-12-17T17:48:41.125Z,99.56
2022-12-17T17:51:11.632Z,99.36
2022-12-17T17:53:38.494Z,99.52
2022-12-17T17:56:08.098Z,99.46
2022-12-17T17:58:35.268Z,99.64
2022-12-17T18:01:10.771Z,99.54
2022-12-17T18:03:37.937Z,99.69
2022-12-17T18:06:07.346Z,99.61
2022-12-17T18:08:36.316Z,99.42
2022-12-17T18:11:06.419Z,99.48
2022-12-17T18:13:52.336Z,99.14
2022-12-17T18:16:19.401Z,99.47
2022-12-17T18:18:46.348Z,99.10
2022-12-17T18:21:15.618Z,99.29
2022-12-17T18:23:43.205Z,99.76
2022-12-17T18:26:16.749Z,99.93
2022-12-17T18:28:44.884Z,99.28
2022-12-17T18:31:20.674Z,99.39
2022-12-17T18:33:54.328Z,99.28
2022-12-17T18:36:30.399Z,99.40
2022-12-17T18:39:01.705Z,99.40
2022-12-17T18:41:48.972Z,99.39
2022-12-17T18:44:16.195Z,99.33
2022-12-17T18:46:43.154Z,99.72
2022-12-17T18:49:13.317Z,99.91
2022-12-17T18:51:42.211Z,99.36
2022-12-17T18:54:13.698Z,98.47
2022-12-17T18:57:00.533Z,98.92
2022-12-17T18:59:29.402Z,98.95
2022-12-17T19:01:57.880Z,99.47
2022-12-17T19:04:25.740Z,99.59
2022-12-17T19:06:53.565Z,99.31
2022-12-17T19:09:26.460Z,99.10
2022-12-17T19:11:54.446Z,98.88
2022-12-17T19:14:25.142Z,98.72
2022-12-17T19:16:53.396Z,98.29
2022-12-17T19:19:21.227Z,98.38
2022-12-17T19:21:49.627Z,98.81
2022-12-17T19:24:18.324Z,98.67
2022-12-17T19:26:45.803Z,98.55
2022-12-17T19:29:14.276Z,98.96
2022-12-17T19:31:41.494Z,99.00
2022-12-17T19:34:11.971Z,98.79
2022-12-17T19:36:39.656Z,98.58
2022-12-17T19:39:10.897Z,97.78
2022-12-17T19:41:37.897Z,98.50
2022-12-17T19:44:07.244Z,98.45
2022-12-17T19:46:35.732Z,98.31
2022-12-17T19:49:03.540Z,98.08
2022-12-17T19:51:31.546Z,98.57
2022-12-17T19:54:03.238Z,98.22
2022-12-17T19:56:34.912Z,98.68
2022-12-17T19:59:06.916Z,98.88
2022-12-17T20:01:37.270Z,98.45
2022-12-17T20:04:05.076Z,98.00
2022-12-17T20:06:34.677Z,97.49
2022-12-17T20:09:03.839Z,98.14
2022-12-17T20:11:34.289Z,97.99
2022-12-17T20:14:16.066Z,97.64
2022-12-17T20:16:45.423Z,97.77
2022-12-17T20:19:38.604Z,97.36
2022-12-17T20:22:05.674Z,97.44
2022-12-17T20:24:32.658Z,97.47
2022-12-17T20:27:00.307Z,97.42
2022-12-17T20:29:27.525Z,97.15
2022-12-17T20:31:55.438Z,96.76
2022-12-17T20:34:23.553Z,97.14
2022-12-17T20:36:52.046Z,96.38
2022-12-17T20:39:23.216Z,96.45
2022-12-17T20:41:53.180Z,96.23
2022-12-17T20:44:19.961Z,95.97
2022-12-17T20:46:46.662Z,96.67
2022-12-17T20:49:14.660Z,96.45
2022-12-17T20:51:42.686Z,96.06
2022-12-17T20:54:10.417Z,94.86
2022-12-17T20:56:38.686Z,94.26
2022-12-17T20:59:07.614Z,94.22
2022-12-17T21:01:36.376Z,95.14
2022-12-17T21:04:06.146Z,94.87
2022-12-17T21:06:43.896Z,94.74
2022-12-17T21:09:11.483Z,94.48
2022-12-17T21:11:39.775Z,93.23
2022-12-17T21:14:12.375Z,93.45
2022-12-17T21:16:40.320Z,93.17
2022-12-17T21:19:11.622Z,93.54
2022-12-17T21:21:38.822Z,93.88
2022-12-17T21:24:06.639Z,94.17
2022-12-17T21:26:35.881Z,94.11
2022-12-17T21:29:04.852Z,93.40
2022-12-17T21:31:38.206Z,93.38
2022-12-17T21:34:07.304Z,93.19
2022-12-17T21:36:34.964Z,93.55
2022-12-17T21:39:08.777Z,93.27
2022-12-17T21:41:43.208Z,93.66
2022-12-17T21:44:15.296Z,93.54
2022-12-17T21:46:42.965Z,94.33
2022-12-17T21:49:10.559Z,94.61
2022-12-17T21:51:37.683Z,94.16
2022-12-17T21:54:08.771Z,94.00
2022-12-17T21:56:36.355Z,92.73
2022-12-17T21:59:03.437Z,92.25
2022-12-17T22:01:32.711Z,92.21
2022-12-17T22:04:01.623Z,92.10
2022-12-17T22:06:31.857Z,92.60
2022-12-17T22:09:08.938Z,92.28
2022-12-17T22:11:42.299Z,92.57
2022-12-17T22:14:16.994Z,91.81
2022-12-17T22:16:47.164Z,91.50
2022-12-17T22:19:20.292Z,91.65
2022-12-17T22:21:51.477Z,91.56
2022-12-17T22:24:25.526Z,91.76
2022-12-17T22:27:00.307Z,91.39
2022-12-17T22:29:46.302Z,91.87
2022-12-17T22:32:31.782Z,93.34
2022-12-17T22:36:22.989Z,93.58
2022-12-17T22:41:58.897Z,93.11
2022-12-17T22:44:33.954Z,92.76
2022-12-17T22:44:42.604Z,93.14
2022-12-17T22:46:17.765Z,93.19
2022-12-17T22:48:44.715Z,93.41
2022-12-17T22:51:20.137Z,93.37
2022-12-17T22:54:01.830Z,93.67
2022-12-17T22:57:08.654Z,93.58
2022-12-17T22:59:17.843Z,93.91
2022-12-17T23:01:44.719Z,94.23
2022-12-17T23:04:14.087Z,94.28
2022-12-17T23:06:41.834Z,94.44
2022-12-17T23:09:08.651Z,93.99
2022-12-17T23:11:35.434Z,93.61
2022-12-17T23:14:02.494Z,93.98
2022-12-17T23:16:29.308Z,94.13
2022-12-17T23:18:56.423Z,94.55
2022-12-17T23:21:25.686Z,94.42
2022-12-17T23:23:53.785Z,94.34
2022-12-17T23:26:23.397Z,94.63
2022-12-17T23:29:03.554Z,94.06
2022-12-17T23:31:34.707Z,93.70
2022-12-17T23:34:01.750Z,93.35
2022-12-17T23:36:29.368Z,93.26
2022-12-17T23:38:56.888Z,92.73
2022-12-17T23:41:27.394Z,93.36
2022-12-17T23:43:54.307Z,93.77
2022-12-17T23:46:23.007Z,93.28
2022-12-17T23:48:50.851Z,93.77
2022-12-17T23:51:19.550Z,93.61
2022-12-17T23:53:46.952Z,93.33
2022-12-17T23:56:19.634Z,92.99
2022-12-17T23:58:47.218Z,92.63
